BLY68BD EGCC-LDDU
Flight info
| Callsign | BLY68BD |
|---|---|
| Flight time | 2h 35m |
| Altitude | 33000 |
| Route | SONEX L975 DESIG L603 DOLAS DCT NAVPI DCT LARAS DCT BUDIP DCT DOJOH DCT DODEN DCT NEGIX DCT DINKU/N0450F350 M867 XERUM DCT BAVAX DCT RADIZ DCT ARNOS DCT GISER DCT SIPAL |
| Aircraft | A321/M-SDE3FGHIRWY/LB1 |
Departure
| Time | 2026-05-05 07:59 |
|---|---|
| Airport | Manchester Airport (EGCC) |
Arrival
| Time | 2026-05-05 10:34 |
|---|---|
| Airport | Dubrovnik Ruđer Bošković Airport (LDDU) |
| Time | Latitude | Longitude | Altitude | Speed | Heading |
|---|---|---|---|---|---|
| 2026-05-05 07:42 | 53.36178 | -2.27771 | 255 ft | 0 kts | 45° |
| 2026-05-05 07:50 | 53.36164 | -2.27794 | 255 ft | 4 kts | 45° |
| 2026-05-05 07:50 | 53.36149 | -2.27820 | 255 ft | 4 kts | 49° |
| 2026-05-05 07:50 | 53.36133 | -2.27856 | 255 ft | 4 kts | 64° |
| 2026-05-05 07:50 | 53.36125 | -2.27898 | 255 ft | 4 kts | 90° |
| 2026-05-05 07:51 | 53.36131 | -2.27938 | 255 ft | 4 kts | 132° |
| 2026-05-05 07:51 | 53.36128 | -2.27936 | 255 ft | 4 kts | 142° |
| 2026-05-05 07:51 | 53.36108 | -2.27910 | 255 ft | 4 kts | 142° |
| 2026-05-05 07:51 | 53.36103 | -2.27904 | 255 ft | 0 kts | 142° |
| 2026-05-05 07:53 | 53.36100 | -2.27900 | 255 ft | 1 kts | 142° |
| 2026-05-05 07:54 | 53.36092 | -2.27890 | 255 ft | 2 kts | 142° |
| 2026-05-05 07:54 | 53.36080 | -2.27874 | 255 ft | 3 kts | 142° |
| 2026-05-05 07:54 | 53.36055 | -2.27843 | 255 ft | 6 kts | 142° |
| 2026-05-05 07:54 | 53.36022 | -2.27799 | 255 ft | 7 kts | 142° |
| 2026-05-05 07:55 | 53.35981 | -2.27751 | 255 ft | 8 kts | 151° |
| 2026-05-05 07:55 | 53.35927 | -2.27728 | 255 ft | 8 kts | 177° |
| 2026-05-05 07:55 | 53.35861 | -2.27729 | 255 ft | 11 kts | 180° |
| 2026-05-05 07:55 | 53.35783 | -2.27683 | 251 ft | 12 kts | 146° |
| 2026-05-05 07:56 | 53.35726 | -2.27638 | 248 ft | 10 kts | 158° |
| 2026-05-05 07:56 | 53.35652 | -2.27566 | 246 ft | 14 kts | 141° |
| 2026-05-05 07:56 | 53.35576 | -2.27463 | 245 ft | 14 kts | 141° |
| 2026-05-05 07:56 | 53.35505 | -2.27367 | 248 ft | 13 kts | 141° |
| 2026-05-05 07:57 | 53.35428 | -2.27263 | 247 ft | 16 kts | 141° |
| 2026-05-05 07:57 | 53.35361 | -2.27196 | 245 ft | 11 kts | 167° |
| 2026-05-05 07:57 | 53.35265 | -2.27212 | 239 ft | 18 kts | 191° |
| 2026-05-05 07:57 | 53.35157 | -2.27246 | 230 ft | 13 kts | 191° |
| 2026-05-05 07:58 | 53.35052 | -2.27284 | 226 ft | 11 kts | 192° |
| 2026-05-05 07:58 | 53.35017 | -2.27309 | 226 ft | 6 kts | 216° |
| 2026-05-05 07:58 | 53.35004 | -2.27331 | 225 ft | 0 kts | 230° |
| 2026-05-05 07:58 | 53.34958 | -2.27425 | 225 ft | 39 kts | 231° |
| 2026-05-05 07:59 | 53.34634 | -2.28097 | 228 ft | 106 kts | 231° |
| 2026-05-05 07:59 | 53.34048 | -2.29314 | 231 ft | 160 kts | 231° |
| 2026-05-05 07:59 | 53.33298 | -2.30871 | 686 ft | 170 kts | 233° |
| 2026-05-05 07:59 | 53.32560 | -2.32399 | 1465 ft | 169 kts | 234° |
| 2026-05-05 08:00 | 53.31890 | -2.34012 | 2086 ft | 172 kts | 249° |
| 2026-05-05 08:00 | 53.31635 | -2.35995 | 2335 ft | 186 kts | 275° |
| 2026-05-05 08:00 | 53.31979 | -2.38154 | 2502 ft | 203 kts | 302° |
| 2026-05-05 08:00 | 53.32990 | -2.39910 | 2622 ft | 222 kts | 331° |
| 2026-05-05 08:01 | 53.34503 | -2.40857 | 2896 ft | 242 kts | 343° |
| 2026-05-05 08:01 | 53.36129 | -2.41709 | 3625 ft | 246 kts | 343° |
| 2026-05-05 08:01 | 53.37782 | -2.42573 | 4364 ft | 251 kts | 343° |
| 2026-05-05 08:01 | 53.39467 | -2.43458 | 4890 ft | 257 kts | 342° |
| 2026-05-05 08:02 | 53.41176 | -2.44364 | 4991 ft | 258 kts | 342° |
| 2026-05-05 08:02 | 53.42885 | -2.45270 | 5001 ft | 258 kts | 345° |
| 2026-05-05 08:02 | 53.44662 | -2.45517 | 5009 ft | 258 kts | 7° |
| 2026-05-05 08:02 | 53.46345 | -2.44634 | 5004 ft | 260 kts | 28° |
| 2026-05-05 08:03 | 53.47739 | -2.42711 | 4994 ft | 262 kts | 50° |
| 2026-05-05 08:03 | 53.48606 | -2.40019 | 5001 ft | 265 kts | 72° |
| 2026-05-05 08:03 | 53.48791 | -2.36941 | 4996 ft | 269 kts | 95° |
| 2026-05-05 08:03 | 53.48410 | -2.33854 | 5008 ft | 270 kts | 98° |
| 2026-05-05 08:04 | 53.48364 | -2.30734 | 4997 ft | 268 kts | 80° |
| 2026-05-05 08:04 | 53.48672 | -2.27651 | 5011 ft | 267 kts | 78° |
| 2026-05-05 08:04 | 53.49003 | -2.24575 | 5005 ft | 267 kts | 77° |
| 2026-05-05 08:04 | 53.49343 | -2.21504 | 5001 ft | 267 kts | 78° |
| 2026-05-05 08:05 | 53.49674 | -2.18431 | 4996 ft | 267 kts | 78° |
| 2026-05-05 08:05 | 53.49995 | -2.15390 | 5106 ft | 271 kts | 78° |
| 2026-05-05 08:05 | 53.50321 | -2.12279 | 5840 ft | 271 kts | 78° |
| 2026-05-05 08:05 | 53.50651 | -2.09149 | 6517 ft | 274 kts | 78° |
| 2026-05-05 08:06 | 53.50987 | -2.05972 | 7141 ft | 278 kts | 79° |
| 2026-05-05 08:06 | 53.51328 | -2.02734 | 7684 ft | 284 kts | 79° |
| 2026-05-05 08:06 | 53.51674 | -1.99439 | 8263 ft | 289 kts | 79° |
| 2026-05-05 08:06 | 53.52026 | -1.96086 | 8885 ft | 292 kts | 79° |
| 2026-05-05 08:07 | 53.52377 | -1.92704 | 9517 ft | 295 kts | 80° |
| 2026-05-05 08:07 | 53.52509 | -1.89250 | 10088 ft | 299 kts | 94° |
| 2026-05-05 08:07 | 53.52139 | -1.85799 | 10577 ft | 305 kts | 107° |
| 2026-05-05 08:07 | 53.51521 | -1.82271 | 10719 ft | 324 kts | 107° |
| 2026-05-05 08:08 | 53.50867 | -1.78587 | 10836 ft | 342 kts | 107° |
| 2026-05-05 08:08 | 53.50167 | -1.74671 | 10966 ft | 359 kts | 107° |
| 2026-05-05 08:08 | 53.49435 | -1.70568 | 11093 ft | 375 kts | 107° |
| 2026-05-05 08:08 | 53.48675 | -1.66309 | 11353 ft | 385 kts | 107° |
| 2026-05-05 08:09 | 53.47907 | -1.61976 | 11794 ft | 389 kts | 107° |
| 2026-05-05 08:09 | 53.47133 | -1.57607 | 12253 ft | 393 kts | 107° |
| 2026-05-05 08:09 | 53.46351 | -1.53190 | 12722 ft | 396 kts | 107° |
| 2026-05-05 08:09 | 53.45558 | -1.48740 | 13186 ft | 400 kts | 107° |
| 2026-05-05 08:10 | 53.44764 | -1.44314 | 13647 ft | 403 kts | 107° |
| 2026-05-05 08:10 | 53.43950 | -1.39793 | 14091 ft | 407 kts | 107° |
| 2026-05-05 08:10 | 53.43125 | -1.35229 | 14524 ft | 410 kts | 108° |
| 2026-05-05 08:10 | 53.42291 | -1.30644 | 14963 ft | 413 kts | 108° |
| 2026-05-05 08:11 | 53.41448 | -1.26029 | 15384 ft | 415 kts | 108° |
| 2026-05-05 08:11 | 53.40600 | -1.21379 | 15798 ft | 418 kts | 108° |
| 2026-05-05 08:11 | 53.39752 | -1.16707 | 16209 ft | 421 kts | 108° |
| 2026-05-05 08:11 | 53.38898 | -1.11994 | 16621 ft | 424 kts | 108° |
| 2026-05-05 08:12 | 53.38036 | -1.07263 | 17029 ft | 426 kts | 108° |
| 2026-05-05 08:12 | 53.37175 | -1.02571 | 17415 ft | 429 kts | 108° |
| 2026-05-05 08:12 | 53.36295 | -0.97782 | 17765 ft | 432 kts | 109° |
| 2026-05-05 08:12 | 53.35404 | -0.92956 | 18124 ft | 435 kts | 109° |
| 2026-05-05 08:13 | 53.34504 | -0.88102 | 18471 ft | 438 kts | 109° |
| 2026-05-05 08:13 | 53.33598 | -0.83221 | 18817 ft | 440 kts | 109° |
| 2026-05-05 08:13 | 53.32685 | -0.78323 | 19171 ft | 442 kts | 109° |
| 2026-05-05 08:13 | 53.31769 | -0.73419 | 19532 ft | 443 kts | 109° |
| 2026-05-05 08:14 | 53.30845 | -0.68487 | 19909 ft | 445 kts | 109° |
| 2026-05-05 08:14 | 53.29919 | -0.63536 | 20263 ft | 447 kts | 109° |
| 2026-05-05 08:14 | 53.28989 | -0.58566 | 20627 ft | 449 kts | 109° |
| 2026-05-05 08:14 | 53.28064 | -0.53644 | 20980 ft | 450 kts | 109° |
| 2026-05-05 08:15 | 53.27120 | -0.48649 | 21332 ft | 452 kts | 109° |
| 2026-05-05 08:15 | 53.26167 | -0.43636 | 21675 ft | 454 kts | 109° |
| 2026-05-05 08:15 | 53.25206 | -0.38603 | 22015 ft | 456 kts | 109° |
| 2026-05-05 08:15 | 53.24242 | -0.33562 | 22383 ft | 456 kts | 110° |
| 2026-05-05 08:16 | 53.23280 | -0.28518 | 22740 ft | 457 kts | 110° |
| 2026-05-05 08:16 | 53.22313 | -0.23452 | 23080 ft | 459 kts | 110° |
| 2026-05-05 08:16 | 53.21343 | -0.18378 | 23402 ft | 460 kts | 110° |
| 2026-05-05 08:16 | 53.20367 | -0.13282 | 23718 ft | 462 kts | 110° |
| 2026-05-05 08:17 | 53.19383 | -0.08177 | 24001 ft | 463 kts | 110° |
| 2026-05-05 08:17 | 53.18402 | -0.03123 | 24294 ft | 464 kts | 110° |
| 2026-05-05 08:17 | 53.17404 | 0.02001 | 24591 ft | 466 kts | 110° |
| 2026-05-05 08:17 | 53.16403 | 0.07144 | 24856 ft | 468 kts | 110° |
| 2026-05-05 08:18 | 53.15398 | 0.12305 | 25146 ft | 469 kts | 109° |
| 2026-05-05 08:18 | 53.14388 | 0.17478 | 25421 ft | 470 kts | 109° |
| 2026-05-05 08:18 | 53.13376 | 0.22656 | 25686 ft | 471 kts | 109° |
| 2026-05-05 08:18 | 53.12360 | 0.27839 | 25943 ft | 472 kts | 109° |
| 2026-05-05 08:19 | 53.11337 | 0.33037 | 26176 ft | 473 kts | 109° |
| 2026-05-05 08:19 | 53.10310 | 0.38235 | 26405 ft | 473 kts | 109° |
| 2026-05-05 08:19 | 53.09421 | 0.42713 | 26596 ft | 474 kts | 109° |
| 2026-05-05 08:19 | 53.08386 | 0.47916 | 26851 ft | 474 kts | 109° |
| 2026-05-05 08:20 | 53.07352 | 0.53104 | 27166 ft | 472 kts | 109° |
| 2026-05-05 08:20 | 53.06317 | 0.58285 | 27445 ft | 472 kts | 109° |
| 2026-05-05 08:20 | 53.05282 | 0.63452 | 27749 ft | 471 kts | 109° |
| 2026-05-05 08:20 | 53.04248 | 0.68608 | 28044 ft | 470 kts | 109° |
| 2026-05-05 08:21 | 53.03215 | 0.73743 | 28351 ft | 468 kts | 109° |
| 2026-05-05 08:21 | 53.02180 | 0.78865 | 28663 ft | 467 kts | 109° |
| 2026-05-05 08:21 | 53.01149 | 0.83964 | 28968 ft | 466 kts | 109° |
| 2026-05-05 08:21 | 53.00131 | 0.88989 | 29265 ft | 464 kts | 110° |
| 2026-05-05 08:22 | 52.99096 | 0.94065 | 29528 ft | 464 kts | 110° |
| 2026-05-05 08:22 | 52.98058 | 0.99130 | 29802 ft | 464 kts | 110° |
| 2026-05-05 08:22 | 52.96996 | 1.04178 | 30071 ft | 463 kts | 111° |
| 2026-05-05 08:22 | 52.95889 | 1.09198 | 30292 ft | 463 kts | 111° |
| 2026-05-05 08:23 | 52.94754 | 1.14185 | 30541 ft | 462 kts | 112° |
| 2026-05-05 08:23 | 52.93606 | 1.19149 | 30789 ft | 461 kts | 112° |
| 2026-05-05 08:23 | 52.92458 | 1.24099 | 31037 ft | 460 kts | 112° |
| 2026-05-05 08:23 | 52.91330 | 1.28976 | 31277 ft | 459 kts | 112° |
| 2026-05-05 08:24 | 52.90195 | 1.33906 | 31527 ft | 458 kts | 112° |
| 2026-05-05 08:24 | 52.89070 | 1.38822 | 31771 ft | 456 kts | 111° |
| 2026-05-05 08:24 | 52.87950 | 1.43728 | 32019 ft | 455 kts | 111° |
| 2026-05-05 08:24 | 52.86832 | 1.48627 | 32264 ft | 454 kts | 111° |
| 2026-05-05 08:25 | 52.85715 | 1.53510 | 32489 ft | 453 kts | 112° |
| 2026-05-05 08:25 | 52.84591 | 1.58390 | 32669 ft | 454 kts | 112° |
| 2026-05-05 08:25 | 52.83466 | 1.63272 | 32868 ft | 454 kts | 112° |
| 2026-05-05 08:25 | 52.82340 | 1.68134 | 33003 ft | 454 kts | 112° |
| 2026-05-05 08:26 | 52.80085 | 1.77792 | 33019 ft | 453 kts | 112° |
| 2026-05-05 08:26 | 52.77813 | 1.87485 | 33013 ft | 453 kts | 112° |
| 2026-05-05 08:27 | 52.75544 | 1.97172 | 33013 ft | 453 kts | 112° |
| 2026-05-05 08:27 | 52.73263 | 2.06875 | 33012 ft | 455 kts | 113° |
| 2026-05-05 08:28 | 52.70978 | 2.16546 | 33011 ft | 456 kts | 113° |
| 2026-05-05 08:28 | 52.68667 | 2.26278 | 33009 ft | 456 kts | 113° |
| 2026-05-05 08:29 | 52.66342 | 2.36000 | 33006 ft | 456 kts | 113° |
| 2026-05-05 08:30 | 52.62837 | 2.50568 | 33002 ft | 456 kts | 113° |
| 2026-05-05 08:30 | 52.60508 | 2.60224 | 33005 ft | 458 kts | 114° |
| 2026-05-05 08:31 | 52.58155 | 2.69953 | 33002 ft | 458 kts | 114° |
| 2026-05-05 08:31 | 52.55788 | 2.79672 | 32998 ft | 458 kts | 114° |
| 2026-05-05 08:32 | 52.52906 | 2.88940 | 33000 ft | 455 kts | 124° |
| 2026-05-05 08:32 | 52.49602 | 2.97795 | 33002 ft | 455 kts | 124° |
| 2026-05-05 08:33 | 52.46319 | 3.06609 | 32987 ft | 456 kts | 124° |
| 2026-05-05 08:33 | 52.43011 | 3.15467 | 33002 ft | 456 kts | 124° |
| 2026-05-05 08:34 | 52.39692 | 3.24325 | 32980 ft | 456 kts | 124° |
| 2026-05-05 08:34 | 52.36367 | 3.33175 | 32986 ft | 456 kts | 124° |
| 2026-05-05 08:35 | 52.33036 | 3.41997 | 32997 ft | 456 kts | 124° |
| 2026-05-05 08:35 | 52.29717 | 3.50751 | 32986 ft | 457 kts | 125° |
| 2026-05-05 08:36 | 52.26353 | 3.59576 | 32978 ft | 458 kts | 125° |
| 2026-05-05 08:36 | 52.22986 | 3.68392 | 32985 ft | 458 kts | 125° |
| 2026-05-05 08:37 | 52.19608 | 3.77217 | 32975 ft | 459 kts | 125° |
| 2026-05-05 08:37 | 52.16241 | 3.85980 | 32975 ft | 460 kts | 125° |
| 2026-05-05 08:38 | 52.12842 | 3.94789 | 32954 ft | 460 kts | 126° |
| 2026-05-05 08:38 | 52.09426 | 4.03610 | 32964 ft | 461 kts | 126° |
| 2026-05-05 08:39 | 52.06006 | 4.12435 | 32957 ft | 461 kts | 126° |
| 2026-05-05 08:39 | 52.02575 | 4.21249 | 32950 ft | 461 kts | 126° |
| 2026-05-05 08:40 | 51.99153 | 4.29977 | 32948 ft | 461 kts | 126° |
| 2026-05-05 08:40 | 51.95708 | 4.38751 | 32934 ft | 461 kts | 127° |
| 2026-05-05 08:41 | 51.92260 | 4.47513 | 32946 ft | 461 kts | 127° |
| 2026-05-05 08:41 | 51.88808 | 4.56250 | 32947 ft | 461 kts | 127° |
| 2026-05-05 08:42 | 51.85353 | 4.64976 | 32946 ft | 461 kts | 127° |
| 2026-05-05 08:42 | 51.81898 | 4.73706 | 32944 ft | 461 kts | 126° |
| 2026-05-05 08:43 | 51.78564 | 4.82486 | 32945 ft | 461 kts | 125° |
| 2026-05-05 08:43 | 51.75243 | 4.91343 | 32947 ft | 461 kts | 126° |
| 2026-05-05 08:44 | 51.71900 | 5.00165 | 32947 ft | 460 kts | 126° |
| 2026-05-05 08:44 | 51.68536 | 5.08942 | 32946 ft | 458 kts | 127° |
| 2026-05-05 08:45 | 51.65208 | 5.17565 | 32944 ft | 456 kts | 127° |
| 2026-05-05 08:45 | 51.61857 | 5.26228 | 32944 ft | 455 kts | 127° |
| 2026-05-05 08:46 | 51.58509 | 5.34880 | 32948 ft | 456 kts | 127° |
| 2026-05-05 08:46 | 51.55151 | 5.43533 | 32947 ft | 456 kts | 128° |
| 2026-05-05 08:47 | 51.51810 | 5.52111 | 32947 ft | 456 kts | 128° |
| 2026-05-05 08:47 | 51.48440 | 5.60725 | 32943 ft | 456 kts | 128° |
| 2026-05-05 08:48 | 51.45061 | 5.69340 | 32938 ft | 456 kts | 128° |
| 2026-05-05 08:48 | 51.41685 | 5.77930 | 32932 ft | 454 kts | 128° |
| 2026-05-05 08:49 | 51.38343 | 5.86421 | 32923 ft | 455 kts | 126° |
| 2026-05-05 08:49 | 51.35628 | 5.95679 | 32920 ft | 461 kts | 120° |
| 2026-05-05 08:50 | 51.33014 | 6.05038 | 32922 ft | 461 kts | 120° |
| 2026-05-05 08:50 | 51.30388 | 6.14370 | 32906 ft | 460 kts | 120° |
| 2026-05-05 08:51 | 51.27748 | 6.23696 | 32888 ft | 461 kts | 120° |
| 2026-05-05 08:51 | 51.25110 | 6.32981 | 32897 ft | 463 kts | 120° |
| 2026-05-05 08:52 | 51.22449 | 6.42331 | 32892 ft | 463 kts | 120° |
| 2026-05-05 08:52 | 51.19781 | 6.51669 | 32890 ft | 463 kts | 120° |
| 2026-05-05 08:53 | 51.17110 | 6.61003 | 32893 ft | 463 kts | 120° |
| 2026-05-05 08:53 | 51.14444 | 6.70259 | 32883 ft | 464 kts | 120° |
| 2026-05-05 08:54 | 51.11750 | 6.79579 | 32890 ft | 463 kts | 120° |
| 2026-05-05 08:54 | 51.09047 | 6.88888 | 32891 ft | 463 kts | 120° |
| 2026-05-05 08:55 | 51.06337 | 6.98187 | 32889 ft | 463 kts | 120° |
| 2026-05-05 08:55 | 51.03641 | 7.07413 | 32892 ft | 463 kts | 120° |
| 2026-05-05 08:56 | 51.00911 | 7.16692 | 32893 ft | 465 kts | 120° |
| 2026-05-05 08:56 | 50.98163 | 7.26003 | 32892 ft | 466 kts | 120° |
| 2026-05-05 08:57 | 50.95413 | 7.35314 | 32891 ft | 466 kts | 120° |
| 2026-05-05 08:57 | 50.92675 | 7.44548 | 32888 ft | 466 kts | 120° |
| 2026-05-05 08:58 | 50.89911 | 7.53823 | 32879 ft | 466 kts | 120° |
| 2026-05-05 08:58 | 50.87127 | 7.63104 | 32884 ft | 468 kts | 120° |
| 2026-05-05 08:59 | 50.84217 | 7.72294 | 32891 ft | 463 kts | 128° |
| 2026-05-05 08:59 | 50.80121 | 7.79848 | 32903 ft | 452 kts | 142° |
| 2026-05-05 09:00 | 50.75536 | 7.86652 | 32910 ft | 453 kts | 142° |
| 2026-05-05 09:00 | 50.70950 | 7.93462 | 32920 ft | 453 kts | 142° |
| 2026-05-05 09:01 | 50.66368 | 8.00263 | 32923 ft | 451 kts | 142° |
| 2026-05-05 09:01 | 50.61791 | 8.07015 | 32875 ft | 450 kts | 142° |
| 2026-05-05 09:02 | 50.57642 | 8.14392 | 32874 ft | 455 kts | 134° |
| 2026-05-05 09:02 | 50.53695 | 8.22170 | 32873 ft | 454 kts | 134° |
| 2026-05-05 09:03 | 50.49751 | 8.29909 | 32874 ft | 454 kts | 134° |
| 2026-05-05 09:03 | 50.45800 | 8.37646 | 32854 ft | 454 kts | 134° |
| 2026-05-05 09:04 | 50.41838 | 8.45374 | 32870 ft | 455 kts | 134° |
| 2026-05-05 09:04 | 50.37887 | 8.53037 | 32870 ft | 454 kts | 135° |
| 2026-05-05 09:05 | 50.33717 | 8.60425 | 32869 ft | 452 kts | 139° |
| 2026-05-05 09:05 | 50.29382 | 8.67501 | 32869 ft | 449 kts | 140° |
| 2026-05-05 09:06 | 50.25052 | 8.74542 | 32868 ft | 449 kts | 139° |
| 2026-05-05 09:06 | 50.20766 | 8.81653 | 32869 ft | 450 kts | 139° |
| 2026-05-05 09:07 | 50.16497 | 8.88789 | 32867 ft | 450 kts | 139° |
| 2026-05-05 09:07 | 50.12943 | 8.94697 | 32869 ft | 449 kts | 139° |
| 2026-05-05 09:08 | 50.07949 | 9.02917 | 32871 ft | 449 kts | 139° |
| 2026-05-05 09:08 | 50.03684 | 9.09942 | 32868 ft | 437 kts | 139° |
| 2026-05-05 09:08 | 50.01641 | 9.13317 | 32873 ft | 421 kts | 139° |
| 2026-05-05 09:09 | 49.99665 | 9.16577 | 32878 ft | 410 kts | 139° |
| 2026-05-05 09:09 | 49.96352 | 9.21986 | 32862 ft | 421 kts | 139° |
| 2026-05-05 09:10 | 49.91565 | 9.29767 | 32877 ft | 436 kts | 139° |
| 2026-05-05 09:10 | 49.87487 | 9.36418 | 32867 ft | 447 kts | 139° |
| 2026-05-05 09:11 | 49.84465 | 9.41344 | 32879 ft | 449 kts | 139° |
| 2026-05-05 09:11 | 49.80270 | 9.48157 | 32867 ft | 449 kts | 139° |
| 2026-05-05 09:12 | 49.76305 | 9.54576 | 32865 ft | 447 kts | 139° |
| 2026-05-05 09:12 | 49.71995 | 9.61532 | 32871 ft | 448 kts | 139° |
| 2026-05-05 09:13 | 49.67729 | 9.68384 | 32881 ft | 449 kts | 139° |
| 2026-05-05 09:13 | 49.63430 | 9.75272 | 32879 ft | 448 kts | 139° |
| 2026-05-05 09:14 | 49.59224 | 9.82011 | 32884 ft | 448 kts | 139° |
| 2026-05-05 09:14 | 49.54899 | 9.88934 | 32886 ft | 448 kts | 139° |
| 2026-05-05 09:15 | 49.50560 | 9.95844 | 32893 ft | 449 kts | 139° |
| 2026-05-05 09:15 | 49.46212 | 10.02738 | 32893 ft | 449 kts | 139° |
| 2026-05-05 09:16 | 49.41854 | 10.09615 | 32893 ft | 449 kts | 139° |
| 2026-05-05 09:16 | 49.37527 | 10.16441 | 32890 ft | 449 kts | 139° |
| 2026-05-05 09:17 | 49.33168 | 10.23310 | 32887 ft | 449 kts | 139° |
| 2026-05-05 09:17 | 49.28807 | 10.30169 | 32886 ft | 450 kts | 139° |
| 2026-05-05 09:18 | 49.24416 | 10.36957 | 32880 ft | 446 kts | 143° |
| 2026-05-05 09:18 | 49.19385 | 10.42170 | 32890 ft | 438 kts | 154° |
| 2026-05-05 09:19 | 49.14141 | 10.46927 | 32888 ft | 439 kts | 154° |
| 2026-05-05 09:19 | 49.08898 | 10.51692 | 32890 ft | 439 kts | 154° |
| 2026-05-05 09:20 | 49.03655 | 10.56457 | 32883 ft | 439 kts | 154° |
| 2026-05-05 09:20 | 48.98472 | 10.61156 | 32866 ft | 435 kts | 154° |
| 2026-05-05 09:21 | 48.93237 | 10.65887 | 33099 ft | 439 kts | 154° |
| 2026-05-05 09:21 | 48.90611 | 10.68253 | 33311 ft | 438 kts | 154° |
| 2026-05-05 09:21 | 48.87990 | 10.70606 | 33548 ft | 438 kts | 154° |
| 2026-05-05 09:21 | 48.85370 | 10.72951 | 33774 ft | 437 kts | 154° |
| 2026-05-05 09:22 | 48.82766 | 10.75329 | 33983 ft | 438 kts | 150° |
| 2026-05-05 09:22 | 48.80359 | 10.78198 | 34155 ft | 443 kts | 141° |
| 2026-05-05 09:22 | 48.78230 | 10.81618 | 34329 ft | 447 kts | 137° |
| 2026-05-05 09:22 | 48.76168 | 10.85116 | 34520 ft | 446 kts | 137° |
| 2026-05-05 09:23 | 48.74120 | 10.88564 | 34682 ft | 445 kts | 137° |
| 2026-05-05 09:23 | 48.72044 | 10.92035 | 34829 ft | 445 kts | 137° |
| 2026-05-05 09:23 | 48.69957 | 10.95513 | 34858 ft | 447 kts | 137° |
| 2026-05-05 09:24 | 48.65753 | 11.02498 | 34860 ft | 450 kts | 137° |
| 2026-05-05 09:24 | 48.61548 | 11.09505 | 34864 ft | 450 kts | 137° |
| 2026-05-05 09:25 | 48.57340 | 11.16517 | 34862 ft | 450 kts | 137° |
| 2026-05-05 09:25 | 48.53123 | 11.23501 | 34864 ft | 450 kts | 137° |
| 2026-05-05 09:26 | 48.48933 | 11.30426 | 34844 ft | 451 kts | 137° |
| 2026-05-05 09:26 | 48.44704 | 11.37416 | 34851 ft | 452 kts | 136° |
| 2026-05-05 09:27 | 48.40451 | 11.44407 | 34862 ft | 453 kts | 137° |
| 2026-05-05 09:27 | 48.36185 | 11.51380 | 34875 ft | 453 kts | 137° |
| 2026-05-05 09:28 | 48.31951 | 11.58302 | 34876 ft | 453 kts | 137° |
| 2026-05-05 09:28 | 48.27676 | 11.65273 | 34874 ft | 454 kts | 136° |
| 2026-05-05 09:29 | 48.23270 | 11.72033 | 34875 ft | 452 kts | 140° |
| 2026-05-05 09:29 | 48.18607 | 11.78357 | 34876 ft | 452 kts | 142° |
| 2026-05-05 09:30 | 48.13921 | 11.84552 | 34872 ft | 452 kts | 142° |
| 2026-05-05 09:30 | 48.09253 | 11.90867 | 34870 ft | 453 kts | 141° |
| 2026-05-05 09:31 | 48.04608 | 11.97235 | 34872 ft | 453 kts | 141° |
| 2026-05-05 09:31 | 47.99963 | 12.03600 | 34853 ft | 453 kts | 141° |
| 2026-05-05 09:32 | 47.95333 | 12.09899 | 34862 ft | 453 kts | 141° |
| 2026-05-05 09:32 | 47.90668 | 12.16211 | 34867 ft | 453 kts | 141° |
| 2026-05-05 09:33 | 47.86005 | 12.22503 | 34869 ft | 453 kts | 141° |
| 2026-05-05 09:33 | 47.81343 | 12.28804 | 34865 ft | 452 kts | 141° |
| 2026-05-05 09:34 | 47.76673 | 12.35078 | 34862 ft | 452 kts | 141° |
| 2026-05-05 09:34 | 47.72041 | 12.41283 | 34865 ft | 451 kts | 141° |
| 2026-05-05 09:35 | 47.68929 | 12.45443 | 34863 ft | 450 kts | 141° |
| 2026-05-05 09:36 | 47.68353 | 12.46226 | 34862 ft | 450 kts | 139° |
| 2026-05-05 09:36 | 47.63813 | 12.52603 | 34863 ft | 449 kts | 142° |
| 2026-05-05 09:37 | 47.58674 | 12.57699 | 34864 ft | 444 kts | 152° |
| 2026-05-05 09:37 | 47.53467 | 12.62636 | 34855 ft | 445 kts | 150° |
| 2026-05-05 09:38 | 47.48305 | 12.67714 | 34853 ft | 446 kts | 149° |
| 2026-05-05 09:38 | 47.43167 | 12.72747 | 34856 ft | 446 kts | 150° |
| 2026-05-05 09:39 | 47.37969 | 12.77757 | 34874 ft | 446 kts | 150° |
| 2026-05-05 09:39 | 47.32759 | 12.82747 | 34895 ft | 447 kts | 150° |
| 2026-05-05 09:40 | 47.27542 | 12.87734 | 34903 ft | 447 kts | 150° |
| 2026-05-05 09:40 | 47.22363 | 12.92687 | 34906 ft | 447 kts | 150° |
| 2026-05-05 09:41 | 47.17143 | 12.97683 | 34907 ft | 448 kts | 150° |
| 2026-05-05 09:41 | 47.11903 | 13.02674 | 34932 ft | 449 kts | 150° |
| 2026-05-05 09:42 | 47.06651 | 13.07661 | 34938 ft | 450 kts | 150° |
| 2026-05-05 09:42 | 47.01392 | 13.12645 | 34963 ft | 450 kts | 150° |
| 2026-05-05 09:43 | 46.96180 | 13.17581 | 34970 ft | 448 kts | 150° |
| 2026-05-05 09:43 | 46.90940 | 13.22523 | 34985 ft | 448 kts | 150° |
| 2026-05-05 09:44 | 46.85706 | 13.27443 | 35001 ft | 447 kts | 150° |
| 2026-05-05 09:44 | 46.80470 | 13.32367 | 34995 ft | 447 kts | 150° |
| 2026-05-05 09:45 | 46.75234 | 13.37263 | 35015 ft | 447 kts | 150° |
| 2026-05-05 09:45 | 46.70037 | 13.42120 | 35016 ft | 446 kts | 150° |
| 2026-05-05 09:46 | 46.64816 | 13.47010 | 35029 ft | 446 kts | 150° |
| 2026-05-05 09:46 | 46.59592 | 13.51869 | 35021 ft | 445 kts | 151° |
| 2026-05-05 09:47 | 46.54405 | 13.56670 | 35029 ft | 446 kts | 149° |
| 2026-05-05 09:47 | 46.49462 | 13.62146 | 35033 ft | 447 kts | 146° |
| 2026-05-05 09:48 | 46.44547 | 13.67661 | 35037 ft | 446 kts | 146° |
| 2026-05-05 09:48 | 46.39629 | 13.73153 | 35036 ft | 446 kts | 146° |
| 2026-05-05 09:49 | 46.34703 | 13.78625 | 35032 ft | 446 kts | 146° |
| 2026-05-05 09:49 | 46.29800 | 13.84060 | 35011 ft | 448 kts | 145° |
| 2026-05-05 09:50 | 46.24846 | 13.89544 | 35012 ft | 449 kts | 145° |
| 2026-05-05 09:50 | 46.19876 | 13.95038 | 35029 ft | 451 kts | 145° |
| 2026-05-05 09:51 | 46.14890 | 14.00545 | 35034 ft | 452 kts | 145° |
| 2026-05-05 09:51 | 46.09930 | 14.06017 | 35036 ft | 452 kts | 146° |
| 2026-05-05 09:52 | 46.04919 | 14.11521 | 35028 ft | 454 kts | 146° |
| 2026-05-05 09:52 | 45.99883 | 14.17024 | 35031 ft | 455 kts | 146° |
| 2026-05-05 09:53 | 45.94845 | 14.22527 | 35040 ft | 456 kts | 146° |
| 2026-05-05 09:53 | 45.89792 | 14.28044 | 35049 ft | 456 kts | 146° |
| 2026-05-05 09:54 | 45.84774 | 14.33511 | 35043 ft | 456 kts | 146° |
| 2026-05-05 09:54 | 45.79708 | 14.38999 | 35062 ft | 457 kts | 146° |
| 2026-05-05 09:55 | 45.74633 | 14.44485 | 35054 ft | 457 kts | 146° |
| 2026-05-05 09:55 | 45.69591 | 14.49927 | 35059 ft | 457 kts | 146° |
| 2026-05-05 09:56 | 45.64514 | 14.55403 | 35057 ft | 457 kts | 146° |
| 2026-05-05 09:56 | 45.59426 | 14.60881 | 35051 ft | 459 kts | 146° |
| 2026-05-05 09:57 | 45.54327 | 14.66349 | 35039 ft | 459 kts | 146° |
| 2026-05-05 09:57 | 45.49223 | 14.71813 | 35055 ft | 459 kts | 146° |
| 2026-05-05 09:58 | 45.44137 | 14.77245 | 35061 ft | 460 kts | 146° |
| 2026-05-05 09:58 | 45.39012 | 14.82696 | 35065 ft | 460 kts | 146° |
| 2026-05-05 09:59 | 45.33882 | 14.88150 | 35064 ft | 461 kts | 146° |
| 2026-05-05 09:59 | 45.28741 | 14.93604 | 35069 ft | 462 kts | 146° |
| 2026-05-05 10:00 | 45.23627 | 14.99014 | 35068 ft | 462 kts | 146° |
| 2026-05-05 10:00 | 45.18465 | 15.04459 | 35064 ft | 462 kts | 146° |
| 2026-05-05 10:01 | 45.13306 | 15.09891 | 35048 ft | 462 kts | 147° |
| 2026-05-05 10:01 | 45.08141 | 15.15320 | 35053 ft | 463 kts | 147° |
| 2026-05-05 10:02 | 45.02962 | 15.20720 | 35053 ft | 463 kts | 147° |
| 2026-05-05 10:02 | 44.97778 | 15.26016 | 35064 ft | 463 kts | 147° |
| 2026-05-05 10:03 | 44.92555 | 15.31331 | 35060 ft | 463 kts | 147° |
| 2026-05-05 10:03 | 44.87336 | 15.36657 | 35068 ft | 463 kts | 147° |
| 2026-05-05 10:04 | 44.82119 | 15.41985 | 35061 ft | 463 kts | 147° |
| 2026-05-05 10:04 | 44.76923 | 15.47263 | 35062 ft | 464 kts | 147° |
| 2026-05-05 10:05 | 44.71690 | 15.52567 | 35070 ft | 464 kts | 147° |
| 2026-05-05 10:05 | 44.66453 | 15.57868 | 35079 ft | 464 kts | 147° |
| 2026-05-05 10:06 | 44.61222 | 15.63156 | 35085 ft | 463 kts | 147° |
| 2026-05-05 10:06 | 44.56027 | 15.68385 | 35081 ft | 463 kts | 147° |
| 2026-05-05 10:07 | 44.50784 | 15.73652 | 35080 ft | 464 kts | 147° |
| 2026-05-05 10:07 | 44.45534 | 15.78913 | 35073 ft | 464 kts | 147° |
| 2026-05-05 10:08 | 44.40278 | 15.84174 | 35073 ft | 465 kts | 147° |
| 2026-05-05 10:08 | 44.35013 | 15.89418 | 35067 ft | 465 kts | 147° |
| 2026-05-05 10:09 | 44.29783 | 15.94624 | 35080 ft | 465 kts | 148° |
| 2026-05-05 10:09 | 44.24502 | 15.99874 | 35063 ft | 466 kts | 147° |
| 2026-05-05 10:10 | 44.19219 | 16.05099 | 35087 ft | 465 kts | 147° |
| 2026-05-05 10:10 | 44.13946 | 16.10314 | 35091 ft | 465 kts | 147° |
| 2026-05-05 10:11 | 44.08710 | 16.15485 | 35082 ft | 464 kts | 148° |
| 2026-05-05 10:11 | 44.03437 | 16.20679 | 35081 ft | 465 kts | 148° |
| 2026-05-05 10:12 | 43.98151 | 16.25883 | 35071 ft | 466 kts | 147° |
| 2026-05-05 10:12 | 43.92849 | 16.31082 | 35079 ft | 467 kts | 147° |
| 2026-05-05 10:13 | 43.87574 | 16.36237 | 35085 ft | 467 kts | 147° |
| 2026-05-05 10:13 | 43.82252 | 16.41428 | 35083 ft | 468 kts | 148° |
| 2026-05-05 10:14 | 43.76911 | 16.46618 | 35042 ft | 470 kts | 148° |
| 2026-05-05 10:14 | 43.74240 | 16.49221 | 34810 ft | 470 kts | 148° |
| 2026-05-05 10:14 | 43.71565 | 16.51827 | 34568 ft | 470 kts | 148° |
| 2026-05-05 10:15 | 43.68889 | 16.54430 | 34322 ft | 471 kts | 148° |
| 2026-05-05 10:15 | 43.66240 | 16.57000 | 33882 ft | 472 kts | 148° |
| 2026-05-05 10:15 | 43.63541 | 16.59608 | 32979 ft | 475 kts | 148° |
| 2026-05-05 10:15 | 43.60837 | 16.62216 | 32176 ft | 475 kts | 148° |
| 2026-05-05 10:16 | 43.58125 | 16.64832 | 31313 ft | 476 kts | 148° |
| 2026-05-05 10:16 | 43.55401 | 16.67459 | 30382 ft | 479 kts | 147° |
| 2026-05-05 10:16 | 43.52660 | 16.70100 | 29367 ft | 481 kts | 147° |
| 2026-05-05 10:16 | 43.49917 | 16.72740 | 28419 ft | 482 kts | 147° |
| 2026-05-05 10:17 | 43.47165 | 16.75384 | 27358 ft | 484 kts | 147° |
| 2026-05-05 10:17 | 43.44428 | 16.78007 | 26309 ft | 487 kts | 147° |
| 2026-05-05 10:17 | 43.41656 | 16.80666 | 25514 ft | 484 kts | 147° |
| 2026-05-05 10:17 | 43.38912 | 16.83303 | 24811 ft | 479 kts | 147° |
| 2026-05-05 10:18 | 43.36197 | 16.85909 | 24101 ft | 475 kts | 147° |
| 2026-05-05 10:18 | 43.33490 | 16.88500 | 23311 ft | 472 kts | 147° |
| 2026-05-05 10:18 | 43.30808 | 16.91059 | 22593 ft | 466 kts | 147° |
| 2026-05-05 10:18 | 43.28166 | 16.93572 | 21893 ft | 460 kts | 147° |
| 2026-05-05 10:19 | 43.25553 | 16.96061 | 21207 ft | 453 kts | 147° |
| 2026-05-05 10:19 | 43.22983 | 16.98509 | 20528 ft | 447 kts | 147° |
| 2026-05-05 10:19 | 43.20445 | 17.00925 | 19857 ft | 441 kts | 147° |
| 2026-05-05 10:19 | 43.17973 | 17.03276 | 19207 ft | 435 kts | 147° |
| 2026-05-05 10:20 | 43.15525 | 17.05661 | 18567 ft | 429 kts | 143° |
| 2026-05-05 10:20 | 43.13360 | 17.08432 | 17902 ft | 425 kts | 133° |
| 2026-05-05 10:20 | 43.11576 | 17.11619 | 17311 ft | 418 kts | 125° |
| 2026-05-05 10:20 | 43.09976 | 17.14903 | 16744 ft | 411 kts | 125° |
| 2026-05-05 10:21 | 43.08399 | 17.18127 | 16184 ft | 404 kts | 126° |
| 2026-05-05 10:21 | 43.06845 | 17.21294 | 15663 ft | 398 kts | 126° |
| 2026-05-05 10:21 | 43.05313 | 17.24409 | 15107 ft | 392 kts | 126° |
| 2026-05-05 10:21 | 43.03824 | 17.27434 | 14590 ft | 386 kts | 126° |
| 2026-05-05 10:22 | 43.02315 | 17.30492 | 14053 ft | 380 kts | 126° |
| 2026-05-05 10:22 | 43.00868 | 17.33429 | 13473 ft | 375 kts | 126° |
| 2026-05-05 10:22 | 42.99424 | 17.36356 | 12931 ft | 369 kts | 126° |
| 2026-05-05 10:22 | 42.97999 | 17.39244 | 12385 ft | 365 kts | 126° |
| 2026-05-05 10:23 | 42.96586 | 17.42101 | 11840 ft | 361 kts | 126° |
| 2026-05-05 10:23 | 42.95190 | 17.44926 | 11300 ft | 357 kts | 127° |
| 2026-05-05 10:23 | 42.93836 | 17.47664 | 11114 ft | 336 kts | 127° |
| 2026-05-05 10:23 | 42.92581 | 17.50205 | 10982 ft | 311 kts | 127° |
| 2026-05-05 10:24 | 42.91401 | 17.52586 | 10684 ft | 297 kts | 127° |
| 2026-05-05 10:24 | 42.90195 | 17.54772 | 10371 ft | 288 kts | 135° |
| 2026-05-05 10:24 | 42.88798 | 17.56719 | 10131 ft | 287 kts | 136° |
| 2026-05-05 10:24 | 42.87399 | 17.58655 | 9933 ft | 287 kts | 137° |
| 2026-05-05 10:25 | 42.86010 | 17.60589 | 9802 ft | 285 kts | 137° |
| 2026-05-05 10:25 | 42.84629 | 17.62519 | 9666 ft | 284 kts | 136° |
| 2026-05-05 10:25 | 42.83252 | 17.64443 | 9531 ft | 282 kts | 137° |
| 2026-05-05 10:25 | 42.81879 | 17.66354 | 9400 ft | 282 kts | 137° |
| 2026-05-05 10:26 | 42.80508 | 17.68261 | 9270 ft | 281 kts | 136° |
| 2026-05-05 10:26 | 42.79151 | 17.70147 | 8892 ft | 282 kts | 137° |
| 2026-05-05 10:26 | 42.77799 | 17.72086 | 8443 ft | 283 kts | 131° |
| 2026-05-05 10:26 | 42.76750 | 17.74361 | 7990 ft | 286 kts | 120° |
| 2026-05-05 10:27 | 42.75837 | 17.76743 | 7659 ft | 282 kts | 120° |
| 2026-05-05 10:27 | 42.74919 | 17.79108 | 7237 ft | 281 kts | 121° |
| 2026-05-05 10:27 | 42.74006 | 17.81443 | 6921 ft | 279 kts | 121° |
| 2026-05-05 10:27 | 42.73097 | 17.83760 | 6544 ft | 275 kts | 121° |
| 2026-05-05 10:28 | 42.72199 | 17.86053 | 5946 ft | 274 kts | 121° |
| 2026-05-05 10:28 | 42.71321 | 17.88292 | 5389 ft | 270 kts | 121° |
| 2026-05-05 10:28 | 42.70452 | 17.90514 | 4873 ft | 261 kts | 121° |
| 2026-05-05 10:28 | 42.69641 | 17.92593 | 4793 ft | 239 kts | 121° |
| 2026-05-05 10:29 | 42.68868 | 17.94566 | 4707 ft | 235 kts | 120° |
| 2026-05-05 10:29 | 42.68104 | 17.96508 | 4632 ft | 226 kts | 121° |
| 2026-05-05 10:29 | 42.67379 | 17.98352 | 4524 ft | 218 kts | 121° |
| 2026-05-05 10:29 | 42.66660 | 18.00158 | 4447 ft | 217 kts | 121° |
| 2026-05-05 10:30 | 42.65950 | 18.01955 | 4222 ft | 215 kts | 121° |
| 2026-05-05 10:30 | 42.65259 | 18.03711 | 3958 ft | 212 kts | 121° |
| 2026-05-05 10:30 | 42.64570 | 18.05463 | 3685 ft | 210 kts | 121° |
| 2026-05-05 10:30 | 42.63895 | 18.07179 | 3431 ft | 201 kts | 121° |
| 2026-05-05 10:31 | 42.63253 | 18.08812 | 3159 ft | 192 kts | 120° |
| 2026-05-05 10:31 | 42.62636 | 18.10376 | 2907 ft | 184 kts | 121° |
| 2026-05-05 10:31 | 42.62041 | 18.11884 | 2669 ft | 178 kts | 120° |
| 2026-05-05 10:31 | 42.61468 | 18.13339 | 2434 ft | 170 kts | 121° |
| 2026-05-05 10:32 | 42.60933 | 18.14695 | 2235 ft | 155 kts | 121° |
| 2026-05-05 10:32 | 42.60441 | 18.15942 | 2022 ft | 146 kts | 121° |
| 2026-05-05 10:32 | 42.59970 | 18.17133 | 1822 ft | 141 kts | 120° |
| 2026-05-05 10:32 | 42.59510 | 18.18295 | 1640 ft | 141 kts | 120° |
| 2026-05-05 10:33 | 42.59047 | 18.19468 | 1447 ft | 142 kts | 121° |
| 2026-05-05 10:33 | 42.58585 | 18.20635 | 1268 ft | 140 kts | 121° |
| 2026-05-05 10:33 | 42.58120 | 18.21808 | 1073 ft | 140 kts | 122° |
| 2026-05-05 10:33 | 42.57664 | 18.22962 | 883 ft | 140 kts | 122° |
| 2026-05-05 10:34 | 42.57208 | 18.24115 | 685 ft | 138 kts | 124° |
| 2026-05-05 10:34 | 42.56751 | 18.25260 | 539 ft | 136 kts | 123° |
| 2026-05-05 10:34 | 42.56369 | 18.26224 | 534 ft | 93 kts | 117° |
| 2026-05-05 10:34 | 42.56147 | 18.26788 | 534 ft | 43 kts | 118° |
| 2026-05-05 10:35 | 42.56053 | 18.27025 | 534 ft | 25 kts | 118° |
| 2026-05-05 10:35 | 42.55970 | 18.27232 | 533 ft | 22 kts | 117° |
| 2026-05-05 10:35 | 42.55889 | 18.27326 | 532 ft | 17 kts | 167° |
| 2026-05-05 10:35 | 42.55827 | 18.27337 | 533 ft | 4 kts | 172° |
| 2026-05-05 10:36 | 42.55791 | 18.27341 | 534 ft | 6 kts | 185° |
| 2026-05-05 10:36 | 42.55773 | 18.27287 | 534 ft | 7 kts | 271° |
| 2026-05-05 10:36 | 42.55773 | 18.27285 | 534 ft | 0 kts | 274° |
| 2026-05-05 10:37 | 42.55773 | 18.27283 | 534 ft | 1 kts | 276° |
| 2026-05-05 10:37 | 42.55778 | 18.27265 | 534 ft | 3 kts | 291° |
| 2026-05-05 10:37 | 42.55782 | 18.27251 | 534 ft | 0 kts | 291° |
| 2026-05-05 10:37 | 42.55789 | 18.27228 | 534 ft | 5 kts | 293° |
| 2026-05-05 10:38 | 42.55811 | 18.27169 | 534 ft | 9 kts | 299° |
| 2026-05-05 10:38 | 42.55850 | 18.27076 | 534 ft | 13 kts | 299° |
| 2026-05-05 10:38 | 42.55901 | 18.26949 | 534 ft | 17 kts | 299° |
| 2026-05-05 10:38 | 42.55960 | 18.26797 | 534 ft | 18 kts | 297° |
| 2026-05-05 10:39 | 42.56025 | 18.26632 | 534 ft | 21 kts | 298° |
| 2026-05-05 10:39 | 42.56086 | 18.26479 | 534 ft | 15 kts | 298° |
| 2026-05-05 10:39 | 42.56116 | 18.26404 | 534 ft | 7 kts | 298° |
| 2026-05-05 10:39 | 42.56135 | 18.26353 | 534 ft | 2 kts | 287° |
| 2026-05-05 10:40 | 42.56127 | 18.26334 | 534 ft | 3 kts | 231° |
| 2026-05-05 10:40 | 42.56108 | 18.26317 | 534 ft | 4 kts | 207° |
| 2026-05-05 10:40 | 42.56097 | 18.26309 | 534 ft | 1 kts | 208° |
| 2026-05-05 10:40 | 42.56091 | 18.26305 | 534 ft | 1 kts | 208° |
| 2026-05-05 10:41 | 42.56088 | 18.26302 | 534 ft | 0 kts | 208° |